sensor_id;sensor_type;location;lat;lon;timestamp;P1;durP1;ratioP1;P2;durP2;ratioP2
65039;SDS011;51606;45.000;38.612;2022-11-18T05:22:22;6.95;;;1.83;;
65039;SDS011;51606;45.000;38.612;2022-11-18T05:24:49;5.75;;;2.40;;
65039;SDS011;51606;45.000;38.612;2022-11-18T05:27:15;4.80;;;1.50;;
65039;SDS011;51606;45.000;38.612;2022-11-18T05:29:42;3.85;;;2.30;;
65039;SDS011;51606;45.000;38.612;2022-11-18T05:32:08;4.03;;;1.70;;
65039;SDS011;51606;45.000;38.612;2022-11-18T05:34:39;2.80;;;1.65;;
65039;SDS011;51606;45.000;38.612;2022-11-18T05:37:06;2.90;;;1.63;;
65039;SDS011;51606;45.000;38.612;2022-11-18T05:39:33;2.38;;;1.40;;
65039;SDS011;51606;45.000;38.612;2022-11-18T05:41:59;4.63;;;2.15;;
65039;SDS011;51606;45.000;38.612;2022-11-18T05:47:12;2.35;;;1.52;;
65039;SDS011;51606;45.000;38.612;2022-11-18T05:49:38;1.80;;;0.90;;
65039;SDS011;51606;45.000;38.612;2022-11-18T05:52:05;1.70;;;1.38;;
65039;SDS011;51606;45.000;38.612;2022-11-18T05:54:37;2.38;;;1.48;;
65039;SDS011;51606;45.000;38.612;2022-11-18T05:57:07;0.98;;;0.80;;
65039;SDS011;51606;45.000;38.612;2022-11-18T05:59:47;1.48;;;1.17;;
65039;SDS011;51606;45.000;38.612;2022-11-18T06:02:15;5.72;;;1.42;;
65039;SDS011;51606;45.000;38.612;2022-11-18T06:04:48;5.03;;;1.70;;
65039;SDS011;51606;45.000;38.612;2022-11-18T06:07:22;3.50;;;1.30;;
65039;SDS011;51606;45.000;38.612;2022-11-18T06:09:54;0.93;;;0.80;;
65039;SDS011;51606;45.000;38.612;2022-11-18T06:12:24;1.40;;;1.30;;
65039;SDS011;51606;45.000;38.612;2022-11-18T06:14:56;2.05;;;1.15;;
65039;SDS011;51606;45.000;38.612;2022-11-18T06:17:28;1.08;;;0.98;;
65039;SDS011;51606;45.000;38.612;2022-11-18T06:22:49;1.33;;;1.00;;
65039;SDS011;51606;45.000;38.612;2022-11-18T06:25:19;10.85;;;1.58;;
65039;SDS011;51606;45.000;38.612;2022-11-18T06:27:46;1.83;;;1.40;;
65039;SDS011;51606;45.000;38.612;2022-11-18T06:30:14;2.35;;;0.82;;
65039;SDS011;51606;45.000;38.612;2022-11-18T06:32:41;1.10;;;1.00;;
65039;SDS011;51606;45.000;38.612;2022-11-18T06:35:08;0.90;;;0.70;;
65039;SDS011;51606;45.000;38.612;2022-11-18T06:37:34;1.67;;;1.00;;
65039;SDS011;51606;45.000;38.612;2022-11-18T06:40:01;1.75;;;1.05;;
65039;SDS011;51606;45.000;38.612;2022-11-18T06:42:27;3.88;;;1.10;;
65039;SDS011;51606;45.000;38.612;2022-11-18T06:45:12;1.92;;;1.38;;
65039;SDS011;51606;45.000;38.612;2022-11-18T06:47:39;1.92;;;1.00;;
65039;SDS011;51606;45.000;38.612;2022-11-18T06:50:05;0.93;;;0.68;;
65039;SDS011;51606;45.000;38.612;2022-11-18T06:52:32;6.53;;;1.10;;
65039;SDS011;51606;45.000;38.612;2022-11-18T06:54:58;1.00;;;0.80;;
65039;SDS011;51606;45.000;38.612;2022-11-18T06:57:24;1.10;;;0.75;;
65039;SDS011;51606;45.000;38.612;2022-11-18T06:59:51;1.55;;;0.95;;
65039;SDS011;51606;45.000;38.612;2022-11-18T07:02:17;0.93;;;0.80;;
65039;SDS011;51606;45.000;38.612;2022-11-18T07:04:44;3.95;;;1.85;;
65039;SDS011;51606;45.000;38.612;2022-11-18T07:07:10;1.13;;;0.82;;
65039;SDS011;51606;45.000;38.612;2022-11-18T07:09:37;2.35;;;1.38;;
65039;SDS011;51606;45.000;38.612;2022-11-18T07:12:03;1.98;;;1.20;;
65039;SDS011;51606;45.000;38.612;2022-11-18T07:14:31;1.08;;;0.98;;
65039;SDS011;51606;45.000;38.612;2022-11-18T07:16:57;1.67;;;1.13;;
65039;SDS011;51606;45.000;38.612;2022-11-18T07:19:23;1.00;;;0.85;;
65039;SDS011;51606;45.000;38.612;2022-11-18T07:21:50;2.05;;;0.90;;
65039;SDS011;51606;45.000;38.612;2022-11-18T07:24:16;1.08;;;0.95;;
65039;SDS011;51606;45.000;38.612;2022-11-18T07:26:43;0.85;;;0.80;;
65039;SDS011;51606;45.000;38.612;2022-11-18T07:29:09;2.08;;;1.13;;
65039;SDS011;51606;45.000;38.612;2022-11-18T07:31:36;1.38;;;0.70;;
65039;SDS011;51606;45.000;38.612;2022-11-18T07:34:04;1.50;;;0.80;;
65039;SDS011;51606;45.000;38.612;2022-11-18T07:36:31;6.45;;;1.00;;
65039;SDS011;51606;45.000;38.612;2022-11-18T07:38:58;5.82;;;0.77;;
65039;SDS011;51606;45.000;38.612;2022-11-18T07:41:26;2.13;;;1.17;;
65039;SDS011;51606;45.000;38.612;2022-11-18T07:44:03;1.75;;;0.82;;
65039;SDS011;51606;45.000;38.612;2022-11-18T07:46:31;4.70;;;1.23;;
65039;SDS011;51606;45.000;38.612;2022-11-18T07:49:00;1.88;;;1.00;;
65039;SDS011;51606;45.000;38.612;2022-11-18T07:51:29;1.08;;;0.80;;
65039;SDS011;51606;45.000;38.612;2022-11-18T07:54:00;1.23;;;0.80;;
65039;SDS011;51606;45.000;38.612;2022-11-18T07:56:31;1.52;;;1.00;;
65039;SDS011;51606;45.000;38.612;2022-11-18T07:58:57;2.75;;;0.93;;
65039;SDS011;51606;45.000;38.612;2022-11-18T08:01:24;3.08;;;0.90;;
65039;SDS011;51606;45.000;38.612;2022-11-18T08:03:55;0.90;;;0.75;;
65039;SDS011;51606;45.000;38.612;2022-11-18T08:06:22;0.90;;;0.70;;
65039;SDS011;51606;45.000;38.612;2022-11-18T08:08:49;2.65;;;1.00;;
65039;SDS011;51606;45.000;38.612;2022-11-18T08:11:16;2.38;;;0.80;;
65039;SDS011;51606;45.000;38.612;2022-11-18T08:13:44;1.58;;;1.08;;
65039;SDS011;51606;45.000;38.612;2022-11-18T08:16:20;6.60;;;0.82;;
65039;SDS011;51606;45.000;38.612;2022-11-18T08:18:48;1.30;;;0.80;;
65039;SDS011;51606;45.000;38.612;2022-11-18T08:21:15;1.73;;;0.98;;
65039;SDS011;51606;45.000;38.612;2022-11-18T08:23:51;1.92;;;1.25;;
65039;SDS011;51606;45.000;38.612;2022-11-18T08:26:19;0.80;;;0.75;;
65039;SDS011;51606;45.000;38.612;2022-11-18T08:28:46;3.80;;;1.10;;
65039;SDS011;51606;45.000;38.612;2022-11-18T08:31:33;5.85;;;0.75;;
65039;SDS011;51606;45.000;38.612;2022-11-18T08:34:00;6.05;;;0.88;;
65039;SDS011;51606;45.000;38.612;2022-11-18T08:36:29;1.27;;;0.50;;
65039;SDS011;51606;45.000;38.612;2022-11-18T08:38:58;1.67;;;0.77;;
65039;SDS011;51606;45.000;38.612;2022-11-18T08:41:35;2.25;;;1.42;;
65039;SDS011;51606;45.000;38.612;2022-11-18T08:44:04;3.60;;;1.02;;
65039;SDS011;51606;45.000;38.612;2022-11-18T08:46:31;3.28;;;1.15;;
65039;SDS011;51606;45.000;38.612;2022-11-18T08:48:57;6.28;;;1.27;;
65039;SDS011;51606;45.000;38.612;2022-11-18T08:51:24;1.00;;;0.80;;
65039;SDS011;51606;45.000;38.612;2022-11-18T08:53:51;3.35;;;0.93;;
65039;SDS011;51606;45.000;38.612;2022-11-18T08:56:18;3.78;;;0.90;;
65039;SDS011;51606;45.000;38.612;2022-11-18T08:58:46;0.90;;;0.80;;
65039;SDS011;51606;45.000;38.612;2022-11-18T09:01:13;0.60;;;0.60;;
65039;SDS011;51606;45.000;38.612;2022-11-18T09:03:40;1.85;;;0.98;;
65039;SDS011;51606;45.000;38.612;2022-11-18T09:06:07;1.10;;;0.85;;
65039;SDS011;51606;45.000;38.612;2022-11-18T09:08:35;8.27;;;0.68;;
65039;SDS011;51606;45.000;38.612;2022-11-18T09:11:12;0.60;;;0.60;;
65039;SDS011;51606;45.000;38.612;2022-11-18T09:13:43;3.25;;;1.42;;
65039;SDS011;51606;45.000;38.612;2022-11-18T09:16:09;1.83;;;0.93;;
65039;SDS011;51606;45.000;38.612;2022-11-18T09:18:36;1.02;;;0.70;;
65039;SDS011;51606;45.000;38.612;2022-11-18T09:21:03;7.10;;;1.08;;
65039;SDS011;51606;45.000;38.612;2022-11-18T09:23:33;3.45;;;1.52;;
65039;SDS011;51606;45.000;38.612;2022-11-18T09:26:10;1.02;;;0.80;;
65039;SDS011;51606;45.000;38.612;2022-11-18T09:28:38;5.68;;;1.42;;
65039;SDS011;51606;45.000;38.612;2022-11-18T09:31:05;0.85;;;0.82;;
65039;SDS011;51606;45.000;38.612;2022-11-18T09:33:33;1.50;;;0.60;;
65039;SDS011;51606;45.000;38.612;2022-11-18T09:36:00;0.98;;;0.70;;
65039;SDS011;51606;45.000;38.612;2022-11-18T09:38:27;1.50;;;0.95;;
65039;SDS011;51606;45.000;38.612;2022-11-18T09:43:52;1.30;;;0.80;;
65039;SDS011;51606;45.000;38.612;2022-11-18T09:49:09;0.70;;;0.70;;
65039;SDS011;51606;45.000;38.612;2022-11-18T09:51:44;0.98;;;0.60;;
65039;SDS011;51606;45.000;38.612;2022-11-18T09:54:22;1.65;;;0.70;;
65039;SDS011;51606;45.000;38.612;2022-11-18T09:57:01;1.75;;;0.60;;
65039;SDS011;51606;45.000;38.612;2022-11-18T09:59:35;1.58;;;1.15;;
65039;SDS011;51606;45.000;38.612;2022-11-18T10:02:56;5.78;;;0.90;;
65039;SDS011;51606;45.000;38.612;2022-11-18T10:05:44;0.60;;;0.60;;
65039;SDS011;51606;45.000;38.612;2022-11-18T10:08:37;1.08;;;0.70;;
65039;SDS011;51606;45.000;38.612;2022-11-18T10:19:24;1.10;;;0.90;;
65039;SDS011;51606;45.000;38.612;2022-11-18T10:24:44;1.13;;;0.90;;
65039;SDS011;51606;45.000;38.612;2022-11-18T10:27:16;1.23;;;0.82;;
65039;SDS011;51606;45.000;38.612;2022-11-18T10:29:43;1.90;;;0.73;;
65039;SDS011;51606;45.000;38.612;2022-11-18T10:32:13;1.13;;;0.88;;
65039;SDS011;51606;45.000;38.612;2022-11-18T10:37:24;4.15;;;0.93;;
65039;SDS011;51606;45.000;38.612;2022-11-18T10:39:56;1.67;;;1.10;;
65039;SDS011;51606;45.000;38.612;2022-11-18T10:48:33;1.27;;;0.93;;
65039;SDS011;51606;45.000;38.612;2022-11-18T10:50:53;5.70;;;0.90;;
65039;SDS011;51606;45.000;38.612;2022-11-18T10:53:28;1.98;;;0.90;;
65039;SDS011;51606;45.000;38.612;2022-11-18T10:58:31;1.33;;;0.57;;
65039;SDS011;51606;45.000;38.612;2022-11-18T11:04:30;2.60;;;1.38;;
65039;SDS011;51606;45.000;38.612;2022-11-18T11:06:47;2.28;;;1.08;;
65039;SDS011;51606;45.000;38.612;2022-11-18T11:11:40;1.67;;;0.90;;
65039;SDS011;51606;45.000;38.612;2022-11-18T11:16:52;2.17;;;1.13;;
65039;SDS011;51606;45.000;38.612;2022-11-18T11:19:33;1.88;;;0.85;;
65039;SDS011;51606;45.000;38.612;2022-11-18T11:33:46;1.45;;;0.95;;
65039;SDS011;51606;45.000;38.612;2022-11-18T11:42:22;10.93;;;0.88;;
65039;SDS011;51606;45.000;38.612;2022-11-18T11:45:17;1.80;;;0.93;;
65039;SDS011;51606;45.000;38.612;2022-11-18T11:50:24;7.60;;;1.13;;
65039;SDS011;51606;45.000;38.612;2022-11-18T11:59:30;2.10;;;1.20;;
65039;SDS011;51606;45.000;38.612;2022-11-18T12:07:59;1.67;;;0.90;;
65039;SDS011;51606;45.000;38.612;2022-11-18T12:26:59;4.75;;;1.38;;
65039;SDS011;51606;45.000;38.612;2022-11-18T12:29:31;2.90;;;1.27;;
65039;SDS011;51606;45.000;38.612;2022-11-18T12:32:03;1.13;;;0.88;;
65039;SDS011;51606;45.000;38.612;2022-11-18T12:42:34;1.10;;;0.90;;
65039;SDS011;51606;45.000;38.612;2022-11-18T12:50:53;5.75;;;0.93;;
65039;SDS011;51606;45.000;38.612;2022-11-18T12:53:29;0.60;;;0.60;;
65039;SDS011;51606;45.000;38.612;2022-11-18T12:55:59;3.63;;;1.00;;
65039;SDS011;51606;45.000;38.612;2022-11-18T12:58:36;1.45;;;0.63;;
65039;SDS011;51606;45.000;38.612;2022-11-18T13:01:12;7.55;;;0.85;;
65039;SDS011;51606;45.000;38.612;2022-11-18T13:03:41;1.35;;;0.95;;
65039;SDS011;51606;45.000;38.612;2022-11-18T13:06:27;2.03;;;0.68;;
65039;SDS011;51606;45.000;38.612;2022-11-18T13:12:04;10.68;;;6.50;;
65039;SDS011;51606;45.000;38.612;2022-11-18T13:14:39;8.88;;;3.72;;
65039;SDS011;51606;45.000;38.612;2022-11-18T13:17:33;4.28;;;2.28;;
65039;SDS011;51606;45.000;38.612;2022-11-18T13:20:20;14.80;;;1.10;;
65039;SDS011;51606;45.000;38.612;2022-11-18T13:25:54;2.45;;;1.20;;
65039;SDS011;51606;45.000;38.612;2022-11-18T13:34:22;1.38;;;0.65;;
65039;SDS011;51606;45.000;38.612;2022-11-18T13:36:53;0.95;;;0.68;;
65039;SDS011;51606;45.000;38.612;2022-11-18T13:39:25;2.17;;;0.90;;
65039;SDS011;51606;45.000;38.612;2022-11-18T13:42:00;0.80;;;0.70;;
65039;SDS011;51606;45.000;38.612;2022-11-18T13:44:32;1.00;;;0.57;;
65039;SDS011;51606;45.000;38.612;2022-11-18T13:49:49;0.77;;;0.70;;
65039;SDS011;51606;45.000;38.612;2022-11-18T13:52:21;1.08;;;0.70;;
65039;SDS011;51606;45.000;38.612;2022-11-18T13:54:51;3.25;;;0.80;;
65039;SDS011;51606;45.000;38.612;2022-11-18T13:57:21;4.65;;;1.00;;
65039;SDS011;51606;45.000;38.612;2022-11-18T13:59:50;1.27;;;0.77;;
65039;SDS011;51606;45.000;38.612;2022-11-18T14:02:19;1.20;;;1.05;;
65039;SDS011;51606;45.000;38.612;2022-11-18T14:04:48;1.52;;;1.40;;
65039;SDS011;51606;45.000;38.612;2022-11-18T14:07:32;1.77;;;1.30;;
65039;SDS011;51606;45.000;38.612;2022-11-18T14:10:04;2.03;;;1.20;;
65039;SDS011;51606;45.000;38.612;2022-11-18T14:12:33;2.42;;;0.80;;
65039;SDS011;51606;45.000;38.612;2022-11-18T14:18:13;2.65;;;1.27;;
65039;SDS011;51606;45.000;38.612;2022-11-18T14:20:51;2.78;;;0.82;;
65039;SDS011;51606;45.000;38.612;2022-11-18T14:23:26;2.45;;;1.08;;
65039;SDS011;51606;45.000;38.612;2022-11-18T14:25:55;0.88;;;0.88;;
65039;SDS011;51606;45.000;38.612;2022-11-18T14:28:29;1.23;;;0.90;;
65039;SDS011;51606;45.000;38.612;2022-11-18T14:36:49;1.37;;;1.03;;
65039;SDS011;51606;45.000;38.612;2022-11-18T14:39:21;1.08;;;0.90;;
65039;SDS011;51606;45.000;38.612;2022-11-18T14:41:55;4.03;;;0.95;;
65039;SDS011;51606;45.000;38.612;2022-11-18T14:44:23;2.78;;;1.23;;
65039;SDS011;51606;45.000;38.612;2022-11-18T14:46:52;1.10;;;0.85;;
65039;SDS011;51606;45.000;38.612;2022-11-18T14:49:33;3.20;;;1.65;;
65039;SDS011;51606;45.000;38.612;2022-11-18T14:52:01;1.92;;;1.20;;
65039;SDS011;51606;45.000;38.612;2022-11-18T14:54:29;8.48;;;1.95;;
65039;SDS011;51606;45.000;38.612;2022-11-18T14:56:56;1.45;;;1.10;;
65039;SDS011;51606;45.000;38.612;2022-11-18T14:59:25;1.67;;;1.50;;
65039;SDS011;51606;45.000;38.612;2022-11-18T15:01:52;3.00;;;1.63;;
65039;SDS011;51606;45.000;38.612;2022-11-18T15:04:18;7.85;;;2.22;;
65039;SDS011;51606;45.000;38.612;2022-11-18T15:06:46;2.28;;;1.30;;
65039;SDS011;51606;45.000;38.612;2022-11-18T15:09:13;1.40;;;1.25;;
65039;SDS011;51606;45.000;38.612;2022-11-18T15:11:39;7.05;;;1.63;;
65039;SDS011;51606;45.000;38.612;2022-11-18T15:14:06;1.58;;;1.25;;
65039;SDS011;51606;45.000;38.612;2022-11-18T15:16:32;1.80;;;1.17;;
65039;SDS011;51606;45.000;38.612;2022-11-18T15:19:00;2.10;;;1.20;;
65039;SDS011;51606;45.000;38.612;2022-11-18T15:21:28;1.38;;;1.15;;
65039;SDS011;51606;45.000;38.612;2022-11-18T15:23:54;3.95;;;2.05;;
65039;SDS011;51606;45.000;38.612;2022-11-18T15:26:26;1.48;;;1.10;;
65039;SDS011;51606;45.000;38.612;2022-11-18T15:29:00;4.50;;;1.50;;
65039;SDS011;51606;45.000;38.612;2022-11-18T15:31:26;1.10;;;1.00;;
65039;SDS011;51606;45.000;38.612;2022-11-18T15:33:53;1.52;;;0.98;;
65039;SDS011;51606;45.000;38.612;2022-11-18T15:36:21;5.07;;;1.50;;
65039;SDS011;51606;45.000;38.612;2022-11-18T15:38:49;1.52;;;1.10;;
65039;SDS011;51606;45.000;38.612;2022-11-18T15:41:26;1.48;;;0.85;;
65039;SDS011;51606;45.000;38.612;2022-11-18T15:43:54;1.02;;;0.93;;
65039;SDS011;51606;45.000;38.612;2022-11-18T15:46:23;1.35;;;0.70;;
65039;SDS011;51606;45.000;38.612;2022-11-18T15:48:51;0.80;;;0.75;;
65039;SDS011;51606;45.000;38.612;2022-11-18T15:51:23;0.70;;;0.70;;
65039;SDS011;51606;45.000;38.612;2022-11-18T15:53:50;1.52;;;1.10;;
65039;SDS011;51606;45.000;38.612;2022-11-18T15:58:44;5.82;;;1.65;;
65039;SDS011;51606;45.000;38.612;2022-11-18T16:01:16;1.75;;;1.30;;
65039;SDS011;51606;45.000;38.612;2022-11-18T16:03:43;3.17;;;1.20;;
65039;SDS011;51606;45.000;38.612;2022-11-18T16:06:09;6.55;;;1.45;;
65039;SDS011;51606;45.000;38.612;2022-11-18T16:08:36;2.75;;;1.40;;
65039;SDS011;51606;45.000;38.612;2022-11-18T16:11:02;1.80;;;1.20;;
65039;SDS011;51606;45.000;38.612;2022-11-18T16:13:47;1.98;;;1.52;;
65039;SDS011;51606;45.000;38.612;2022-11-18T16:16:20;2.97;;;1.50;;
65039;SDS011;51606;45.000;38.612;2022-11-18T16:18:47;4.13;;;1.47;;
65039;SDS011;51606;45.000;38.612;2022-11-18T16:21:14;1.83;;;1.45;;
65039;SDS011;51606;45.000;38.612;2022-11-18T16:23:40;2.22;;;1.42;;
65039;SDS011;51606;45.000;38.612;2022-11-18T16:26:07;1.73;;;1.40;;
65039;SDS011;51606;45.000;38.612;2022-11-18T16:28:43;5.00;;;2.47;;
65039;SDS011;51606;45.000;38.612;2022-11-18T16:31:09;2.65;;;1.77;;
65039;SDS011;51606;45.000;38.612;2022-11-18T16:33:54;1.48;;;1.35;;
65039;SDS011;51606;45.000;38.612;2022-11-18T16:36:26;3.50;;;1.40;;
65039;SDS011;51606;45.000;38.612;2022-11-18T16:38:53;8.13;;;2.58;;
65039;SDS011;51606;45.000;38.612;2022-11-18T16:41:19;3.60;;;1.98;;
65039;SDS011;51606;45.000;38.612;2022-11-18T16:44:08;2.08;;;1.50;;
65039;SDS011;51606;45.000;38.612;2022-11-18T16:46:36;1.77;;;1.25;;
65039;SDS011;51606;45.000;38.612;2022-11-18T16:49:05;2.58;;;1.40;;
65039;SDS011;51606;45.000;38.612;2022-11-18T16:51:35;3.88;;;2.08;;
65039;SDS011;51606;45.000;38.612;2022-11-18T16:54:02;2.00;;;1.50;;
65039;SDS011;51606;45.000;38.612;2022-11-18T16:56:32;3.58;;;2.03;;
65039;SDS011;51606;45.000;38.612;2022-11-18T16:59:01;3.47;;;2.30;;
65039;SDS011;51606;45.000;38.612;2022-11-18T17:01:32;4.63;;;3.42;;
65039;SDS011;51606;45.000;38.612;2022-11-18T17:03:58;4.30;;;2.30;;
65039;SDS011;51606;45.000;38.612;2022-11-18T17:06:29;5.80;;;2.42;;
65039;SDS011;51606;45.000;38.612;2022-11-18T17:08:57;6.82;;;3.40;;
65039;SDS011;51606;45.000;38.612;2022-11-18T17:11:24;7.53;;;3.25;;
65039;SDS011;51606;45.000;38.612;2022-11-18T17:13:50;6.53;;;2.55;;
65039;SDS011;51606;45.000;38.612;2022-11-18T17:16:18;4.07;;;3.13;;
65039;SDS011;51606;45.000;38.612;2022-11-18T17:18:46;4.00;;;2.75;;
65039;SDS011;51606;45.000;38.612;2022-11-18T17:21:14;4.47;;;2.67;;
65039;SDS011;51606;45.000;38.612;2022-11-18T17:23:45;7.82;;;3.45;;
65039;SDS011;51606;45.000;38.612;2022-11-18T17:26:14;3.70;;;2.40;;
65039;SDS011;51606;45.000;38.612;2022-11-18T17:28:50;6.25;;;3.38;;
65039;SDS011;51606;45.000;38.612;2022-11-18T17:42:39;18.45;;;4.25;;
65039;SDS011;51606;45.000;38.612;2022-11-18T17:45:06;4.20;;;2.80;;
65039;SDS011;51606;45.000;38.612;2022-11-18T17:47:33;3.53;;;1.88;;
65039;SDS011;51606;45.000;38.612;2022-11-18T17:50:00;2.45;;;2.17;;
65039;SDS011;51606;45.000;38.612;2022-11-18T17:52:27;5.55;;;2.92;;
65039;SDS011;51606;45.000;38.612;2022-11-18T17:54:53;7.40;;;3.78;;
65039;SDS011;51606;45.000;38.612;2022-11-18T17:57:19;5.70;;;2.55;;
65039;SDS011;51606;45.000;38.612;2022-11-18T17:59:46;9.63;;;2.80;;
65039;SDS011;51606;45.000;38.612;2022-11-18T18:02:12;4.88;;;2.75;;
65039;SDS011;51606;45.000;38.612;2022-11-18T18:04:38;7.38;;;2.95;;
65039;SDS011;51606;45.000;38.612;2022-11-18T18:07:05;10.18;;;3.13;;
65039;SDS011;51606;45.000;38.612;2022-11-18T18:09:31;5.18;;;3.30;;
65039;SDS011;51606;45.000;38.612;2022-11-18T18:11:58;4.43;;;2.58;;
65039;SDS011;51606;45.000;38.612;2022-11-18T18:15:03;4.93;;;2.50;;
65039;SDS011;51606;45.000;38.612;2022-11-18T18:17:30;5.88;;;2.95;;
65039;SDS011;51606;45.000;38.612;2022-11-18T18:19:57;16.40;;;3.38;;
65039;SDS011;51606;45.000;38.612;2022-11-18T18:22:23;2.90;;;2.60;;
65039;SDS011;51606;45.000;38.612;2022-11-18T18:24:50;10.30;;;2.78;;
65039;SDS011;51606;45.000;38.612;2022-11-18T18:27:16;6.80;;;2.95;;
65039;SDS011;51606;45.000;38.612;2022-11-18T18:29:42;4.72;;;2.85;;
65039;SDS011;51606;45.000;38.612;2022-11-18T18:32:09;6.97;;;3.30;;
65039;SDS011;51606;45.000;38.612;2022-11-18T18:34:35;4.10;;;2.88;;
65039;SDS011;51606;45.000;38.612;2022-11-18T18:37:28;4.80;;;2.58;;
65039;SDS011;51606;45.000;38.612;2022-11-18T18:39:59;12.35;;;2.65;;
65039;SDS011;51606;45.000;38.612;2022-11-18T18:42:26;5.20;;;3.22;;
65039;SDS011;51606;45.000;38.612;2022-11-18T18:44:52;5.63;;;2.63;;
65039;SDS011;51606;45.000;38.612;2022-11-18T18:47:37;5.95;;;2.75;;
65039;SDS011;51606;45.000;38.612;2022-11-18T18:50:03;5.15;;;2.97;;
65039;SDS011;51606;45.000;38.612;2022-11-18T18:52:30;8.63;;;4.40;;
65039;SDS011;51606;45.000;38.612;2022-11-18T18:55:00;7.57;;;3.35;;
65039;SDS011;51606;45.000;38.612;2022-11-18T18:57:27;8.05;;;3.55;;
65039;SDS011;51606;45.000;38.612;2022-11-18T19:00:03;7.68;;;3.55;;
65039;SDS011;51606;45.000;38.612;2022-11-18T19:02:30;6.53;;;3.38;;
65039;SDS011;51606;45.000;38.612;2022-11-18T19:04:56;5.13;;;2.67;;
65039;SDS011;51606;45.000;38.612;2022-11-18T19:07:24;4.55;;;2.75;;
65039;SDS011;51606;45.000;38.612;2022-11-18T19:09:52;5.05;;;2.55;;
65039;SDS011;51606;45.000;38.612;2022-11-18T19:12:18;5.68;;;3.00;;
65039;SDS011;51606;45.000;38.612;2022-11-18T19:15:03;3.70;;;2.08;;
65039;SDS011;51606;45.000;38.612;2022-11-18T19:17:30;5.63;;;2.60;;
65039;SDS011;51606;45.000;38.612;2022-11-18T19:19:56;2.38;;;2.10;;
65039;SDS011;51606;45.000;38.612;2022-11-18T19:22:41;4.00;;;2.58;;
65039;SDS011;51606;45.000;38.612;2022-11-18T19:25:10;5.63;;;2.70;;
65039;SDS011;51606;45.000;38.612;2022-11-18T19:27:37;3.22;;;2.55;;
65039;SDS011;51606;45.000;38.612;2022-11-18T19:30:05;6.65;;;3.10;;
65039;SDS011;51606;45.000;38.612;2022-11-18T19:32:38;8.77;;;3.13;;
65039;SDS011;51606;45.000;38.612;2022-11-18T19:35:07;8.32;;;3.97;;
65039;SDS011;51606;45.000;38.612;2022-11-18T19:37:34;11.70;;;3.50;;
65039;SDS011;51606;45.000;38.612;2022-11-18T19:40:09;3.78;;;2.63;;
65039;SDS011;51606;45.000;38.612;2022-11-18T19:42:37;7.10;;;2.90;;
65039;SDS011;51606;45.000;38.612;2022-11-18T19:45:05;5.95;;;3.20;;
65039;SDS011;51606;45.000;38.612;2022-11-18T19:47:32;9.98;;;3.08;;
65039;SDS011;51606;45.000;38.612;2022-11-18T19:49:58;3.63;;;2.00;;
65039;SDS011;51606;45.000;38.612;2022-11-18T19:52:26;4.70;;;2.58;;
65039;SDS011;51606;45.000;38.612;2022-11-18T19:54:53;9.48;;;3.78;;
65039;SDS011;51606;45.000;38.612;2022-11-18T19:57:19;5.55;;;3.10;;
65039;SDS011;51606;45.000;38.612;2022-11-18T19:59:46;6.30;;;2.60;;
65039;SDS011;51606;45.000;38.612;2022-11-18T20:02:13;2.30;;;2.00;;
65039;SDS011;51606;45.000;38.612;2022-11-18T20:04:39;3.13;;;1.83;;
65039;SDS011;51606;45.000;38.612;2022-11-18T20:07:26;5.68;;;2.45;;
65039;SDS011;51606;45.000;38.612;2022-11-18T20:09:52;2.50;;;2.15;;
65039;SDS011;51606;45.000;38.612;2022-11-18T20:12:18;9.93;;;2.85;;
65039;SDS011;51606;45.000;38.612;2022-11-18T20:14:45;4.97;;;2.70;;
65039;SDS011;51606;45.000;38.612;2022-11-18T20:17:11;4.70;;;3.22;;
65039;SDS011;51606;45.000;38.612;2022-11-18T20:19:37;6.18;;;2.63;;
65039;SDS011;51606;45.000;38.612;2022-11-18T20:22:04;7.68;;;2.45;;
65039;SDS011;51606;45.000;38.612;2022-11-18T20:24:30;3.85;;;2.65;;
65039;SDS011;51606;45.000;38.612;2022-11-18T20:26:56;5.25;;;3.28;;
65039;SDS011;51606;45.000;38.612;2022-11-18T20:29:22;5.57;;;2.88;;
65039;SDS011;51606;45.000;38.612;2022-11-18T20:31:50;8.07;;;3.72;;
65039;SDS011;51606;45.000;38.612;2022-11-18T20:34:18;11.30;;;3.33;;
65039;SDS011;51606;45.000;38.612;2022-11-18T20:36:44;6.13;;;3.53;;
65039;SDS011;51606;45.000;38.612;2022-11-18T20:39:13;9.05;;;4.55;;
65039;SDS011;51606;45.000;38.612;2022-11-18T20:41:40;6.47;;;4.03;;
65039;SDS011;51606;45.000;38.612;2022-11-18T20:44:07;6.03;;;3.95;;
65039;SDS011;51606;45.000;38.612;2022-11-18T20:46:34;11.93;;;3.75;;
65039;SDS011;51606;45.000;38.612;2022-11-18T20:49:00;8.45;;;4.22;;
65039;SDS011;51606;45.000;38.612;2022-11-18T20:51:27;21.25;;;4.40;;
65039;SDS011;51606;45.000;38.612;2022-11-18T20:53:54;12.75;;;4.30;;
65039;SDS011;51606;45.000;38.612;2022-11-18T20:56:25;6.60;;;4.30;;
65039;SDS011;51606;45.000;38.612;2022-11-18T20:58:52;9.02;;;3.83;;
65039;SDS011;51606;45.000;38.612;2022-11-18T21:01:20;10.85;;;4.60;;
65039;SDS011;51606;45.000;38.612;2022-11-18T21:03:47;11.13;;;4.70;;
65039;SDS011;51606;45.000;38.612;2022-11-18T21:06:19;6.72;;;4.43;;
65039;SDS011;51606;45.000;38.612;2022-11-18T21:08:46;9.20;;;5.05;;
65039;SDS011;51606;45.000;38.612;2022-11-18T21:11:13;7.60;;;4.10;;
65039;SDS011;51606;45.000;38.612;2022-11-18T21:13:41;12.98;;;4.85;;
65039;SDS011;51606;45.000;38.612;2022-11-18T21:16:26;5.50;;;3.92;;
65039;SDS011;51606;45.000;38.612;2022-11-18T21:18:53;8.07;;;3.80;;
65039;SDS011;51606;45.000;38.612;2022-11-18T21:21:19;16.13;;;5.05;;
65039;SDS011;51606;45.000;38.612;2022-11-18T21:24:04;24.33;;;4.43;;
65039;SDS011;51606;45.000;38.612;2022-11-18T21:26:31;10.73;;;4.40;;
65039;SDS011;51606;45.000;38.612;2022-11-18T21:29:00;8.23;;;4.07;;
65039;SDS011;51606;45.000;38.612;2022-11-18T21:31:28;9.60;;;4.70;;
65039;SDS011;51606;45.000;38.612;2022-11-18T21:33:55;12.75;;;5.57;;
65039;SDS011;51606;45.000;38.612;2022-11-18T21:36:22;23.27;;;5.60;;
65039;SDS011;51606;45.000;38.612;2022-11-18T21:38:49;6.97;;;3.83;;
65039;SDS011;51606;45.000;38.612;2022-11-18T21:41:16;18.45;;;4.50;;
65039;SDS011;51606;45.000;38.612;2022-11-18T21:43:43;7.43;;;5.05;;
65039;SDS011;51606;45.000;38.612;2022-11-18T21:46:11;7.45;;;3.83;;
65039;SDS011;51606;45.000;38.612;2022-11-18T21:48:39;6.50;;;3.85;;
65039;SDS011;51606;45.000;38.612;2022-11-18T21:51:07;9.38;;;4.40;;
65039;SDS011;51606;45.000;38.612;2022-11-18T21:53:38;8.77;;;4.32;;
65039;SDS011;51606;45.000;38.612;2022-11-18T21:56:11;8.40;;;3.47;;
65039;SDS011;51606;45.000;38.612;2022-11-18T21:58:40;7.97;;;4.75;;
65039;SDS011;51606;45.000;38.612;2022-11-18T22:01:07;5.80;;;4.03;;
65039;SDS011;51606;45.000;38.612;2022-11-18T22:03:43;10.65;;;4.50;;
65039;SDS011;51606;45.000;38.612;2022-11-18T22:06:12;8.80;;;3.42;;
65039;SDS011;51606;45.000;38.612;2022-11-18T22:08:39;8.13;;;4.47;;
65039;SDS011;51606;45.000;38.612;2022-11-18T22:11:07;7.18;;;4.10;;
65039;SDS011;51606;45.000;38.612;2022-11-18T22:13:36;11.80;;;3.90;;
65039;SDS011;51606;45.000;38.612;2022-11-18T22:16:07;7.07;;;4.53;;
65039;SDS011;51606;45.000;38.612;2022-11-18T22:18:49;9.35;;;4.70;;
65039;SDS011;51606;45.000;38.612;2022-11-18T22:21:19;8.30;;;4.38;;
65039;SDS011;51606;45.000;38.612;2022-11-18T22:23:46;6.90;;;4.32;;
65039;SDS011;51606;45.000;38.612;2022-11-18T22:26:17;3.95;;;3.20;;
65039;SDS011;51606;45.000;38.612;2022-11-18T22:28:45;9.43;;;4.75;;
65039;SDS011;51606;45.000;38.612;2022-11-18T22:31:17;8.00;;;4.03;;
65039;SDS011;51606;45.000;38.612;2022-11-18T22:33:47;8.48;;;3.80;;